Sunday, December 16, 2018, 11:30 AM EST
Back to Local

KFME, Fort Meade / Tipton

Location: Laurel, MD, United States Lat: 39.083
Local Time: 11:30 AM EST (16:30 GMT) Lon: -76.767
Time Zone: US/Eastern Elev: 150 ft

Show me the last for .
Show Decoded

2018-12-16 11:21 METAR KFME 161621Z AUTO 36004KT 4SM OVC009 06/05 A2987 RMK AO1 =
2018-12-16 11:00 METAR KFME 161600Z AUTO 35007KT 4SM OVC009 06/05 A2988 RMK AO1 =
2018-12-16 10:42 METAR KFME 161542Z AUTO 36005KT 5SM BKN009 OVC012 06/05 A2989 RMK AO1 =
2018-12-16 10:21 METAR KFME 161521Z AUTO 01006KT 7SM OVC009 06/05 A2989 RMK AO1 =
2018-12-16 10:00 METAR KFME 161500Z AUTO 01007KT 7SM OVC007 06/05 A2990 RMK AO1 =
2018-12-16 09:42 METAR KFME 161442Z AUTO 02006KT 3SM OVC007 06/05 A2990 RMK AO1 =
2018-12-16 09:21 METAR KFME 161421Z AUTO 02005KT 2SM OVC007 06/05 A2990 RMK AO1 =
2018-12-16 09:00 METAR KFME 161400Z AUTO 04005KT 1 3/4SM OVC007 06/05 A2991 RMK AO1 =
2018-12-16 08:42 METAR KFME 161342Z AUTO 02007KT 2SM OVC007 06/05 A2991 RMK AO1 =
2018-12-16 08:21 METAR KFME 161321Z AUTO 02004KT 2SM OVC007 06/05 A2991 RMK AO1 =
2018-12-16 08:00 METAR KFME 161300Z AUTO 03006KT 2SM OVC007 06/05 A2991 RMK AO1 =
2018-12-16 07:42 METAR KFME 161242Z AUTO 02005KT 2SM OVC005 06/06 A2990 RMK AO1 =
2018-12-16 07:21 METAR KFME 161221Z AUTO 04007KT 2 1/2SM OVC007 06/06 A2991 RMK AO1 =
2018-12-16 07:00 METAR KFME 161200Z AUTO 05003KT 3SM OVC007 06/06 A2990 RMK AO1 =
2018-12-16 06:42 METAR KFME 161142Z AUTO 04006KT 3SM OVC005 06/06 A2990 RMK AO1 =
2018-12-16 06:21 METAR KFME 161121Z AUTO 05006KT 3SM OVC005 06/06 A2990 RMK AO1 =
2018-12-16 06:00 METAR KFME 161100Z AUTO 04007KT 2 1/2SM OVC005 06/06 A2989 RMK AO1 =
2018-12-16 05:42 METAR KFME 161042Z AUTO 05005KT 2 1/2SM OVC007 06/06 A2989 RMK AO1 =
2018-12-16 05:21 METAR KFME 161021Z AUTO 05005G16KT 3SM OVC007 06/06 A2989 RMK AO1 =
2018-12-16 05:00 METAR KFME 161000Z AUTO 05007KT 020V080 2 1/2SM OVC007 07/06 A2990 RMK AO1 =
2018-12-16 04:42 METAR KFME 160942Z AUTO 05006G14KT 4SM OVC007 07/06 A2990 RMK AO1 =
2018-12-16 04:18 METAR KFME 160918Z AUTO 05006G16KT 3SM OVC007 07/07 A2991 RMK AO1 =
2018-12-16 04:00 METAR KFME 160900Z AUTO 06009G16KT 2 1/2SM OVC007 07/07 A2991 RMK AO1 =
2018-12-16 03:42 METAR KFME 160842Z AUTO 06009G16KT 2 1/2SM OVC007 08/07 A2992 RMK AO1 =
2018-12-16 03:21 METAR KFME 160821Z AUTO 05008G15KT 2 1/2SM OVC007 08/07 A2992 RMK AO1 =
2018-12-16 03:00 METAR KFME 160800Z AUTO 03008KT 3SM BKN007 OVC011 08/07 A2992 RMK AO1 =
2018-12-16 02:42 METAR KFME 160742Z AUTO 03004KT 3SM OVC007 08/07 A2993 RMK AO1 =
2018-12-16 02:21 METAR KFME 160721Z AUTO 03006KT 3SM OVC007 08/07 A2992 RMK AO1 =
2018-12-16 02:00 METAR KFME 160700Z AUTO 04005KT 4SM OVC007 08/07 A2992 RMK AO1 =
2018-12-16 01:42 METAR KFME 160642Z AUTO 03006KT 4SM OVC007 08/07 A2992 RMK AO1 =
2018-12-16 01:21 METAR KFME 160621Z AUTO 00000KT 3SM OVC007 08/08 A2992 RMK AO1 =
2018-12-16 00:57 METAR KFME 160557Z AUTO 02005KT 5SM OVC007 08/08 A2992 RMK AO1 =
2018-12-16 00:42 METAR KFME 160542Z AUTO 03004KT 4SM OVC005 08/08 A2992 RMK AO1 =
2018-12-16 00:21 METAR KFME 160521Z AUTO 00000KT 4SM OVC005 08/08 A2993 RMK AO1 =
2018-12-16 00:00 METAR KFME 160500Z AUTO 02005KT 4SM OVC007 08/08 A2993 RMK AO1 =
2018-12-15 23:42 METAR KFME 160442Z AUTO 02004KT 4SM BKN007 OVC010 08/08 A2994 RMK AO1 =
2018-12-15 23:21 METAR KFME 160421Z AUTO 04003KT 2SM OVC005 08/08 A2994 RMK AO1 =
2018-12-15 23:00 METAR KFME 160400Z AUTO 02005KT 4SM OVC005 08/08 A2994 RMK AO1 =
2018-12-15 22:42 METAR KFME 160342Z AUTO 06006KT 040V110 4SM OVC005 08/08 A2994 RMK AO1 =
2018-12-15 22:21 METAR KFME 160321Z AUTO 07003KT 3SM OVC005 08/08 A2995 RMK AO1 =
2018-12-15 22:00 METAR KFME 160300Z AUTO 06004KT 3SM OVC005 08/08 A2996 RMK AO1 =
2018-12-15 21:42 METAR KFME 160242Z AUTO 05008G14KT 010V070 2 1/2SM OVC005 08/08 A2996 RMK AO1 =
2018-12-15 21:21 METAR KFME 160221Z AUTO 06006G15KT 2 1/2SM OVC005 09/08 A2997 RMK AO1 =
2018-12-15 21:00 METAR KFME 160200Z AUTO 05007G16KT 3SM OVC005 09/08 A2997 RMK AO1 =
2018-12-15 20:42 METAR KFME 160142Z AUTO 05009G15KT 3SM OVC007 10/09 A2997 RMK AO1 =
2018-12-15 20:21 METAR KFME 160121Z AUTO 05007KT 3SM OVC007 10/10 A2998 RMK AO1 =
2018-12-15 20:00 METAR KFME 160100Z AUTO 05006KT 3SM OVC007 10/10 A2998 RMK AO1 =
2018-12-15 19:42 METAR KFME 160042Z AUTO 06007KT 020V080 4SM OVC007 10/10 A2999 RMK AO1 =
2018-12-15 19:21 METAR KFME 160021Z AUTO 06009G15KT 4SM OVC007 10/10 A2999 RMK AO1 =
2018-12-15 19:00 METAR KFME 160000Z AUTO 06010G15KT 3SM OVC007 11/10 A2999 RMK AO1 =
2018-12-15 18:42 METAR KFME 152342Z AUTO 06009G17KT 030V090 4SM OVC007 11/10 A2999 RMK AO1 =
2018-12-15 18:21 METAR KFME 152321Z AUTO 05008KT 2SM BKN007 OVC011 11/10 A3000 RMK AO1 =
2018-12-15 18:00 METAR KFME 152300Z AUTO 05009KT 030V090 2SM BKN006 OVC010 11/10 A3001 RMK AO1 =
2018-12-15 17:42 METAR KFME 152242Z AUTO 06009KT 3SM OVC009 11/10 A3001 RMK AO1 =
2018-12-15 17:21 METAR KFME 152221Z AUTO 04007KT 3SM BKN006 OVC011 11/10 A3000 RMK AO1 =
2018-12-15 17:00 METAR KFME 152200Z AUTO 05004G14KT 2SM OVC008 11/10 A3000 RMK AO1 =
2018-12-15 16:42 METAR KFME 152142Z AUTO 04004KT 3SM OVC006 11/10 A3001 RMK AO1 =
2018-12-15 16:21 METAR KFME 152121Z AUTO 05007KT 2 1/2SM OVC006 11/10 A2999 RMK AO1 =
2018-12-15 16:00 METAR KFME 152100Z AUTO 07007G14KT 2 1/2SM OVC006 11/10 A2999 RMK AO1 =
2018-12-15 15:42 METAR KFME 152042Z AUTO 06009KT 2 1/2SM OVC006 11/10 A2999 RMK AO1 =
2018-12-15 15:21 METAR KFME 152021Z AUTO 05009KT 2 1/2SM OVC006 11/10 A2999 RMK AO1 =
2018-12-15 15:00 METAR KFME 152000Z AUTO 05009G14KT 2SM OVC006 11/10 A2999 RMK AO1 =
2018-12-15 14:42 METAR KFME 151942Z AUTO 06005G15KT 2SM OVC006 11/10 A3000 RMK AO1 =
2018-12-15 14:21 METAR KFME 151921Z AUTO 06006KT 3SM OVC006 11/11 A2999 RMK AO1 =
2018-12-15 14:00 METAR KFME 151900Z AUTO 05007KT 5SM OVC006 11/11 A2998 RMK AO1 =
2018-12-15 13:42 METAR KFME 151842Z AUTO 04009KT 5SM OVC006 11/10 A2999 RMK AO1 =
2018-12-15 13:21 METAR KFME 151821Z AUTO 04008KT 010V070 5SM OVC006 11/10 A3000 RMK AO1 =
2018-12-15 13:00 METAR KFME 151800Z AUTO 03006KT 3SM OVC006 10/10 A3001 RMK AO1 =
2018-12-15 12:42 METAR KFME 151742Z AUTO 03006KT 5SM OVC006 10/09 A3004 RMK AO1 =
2018-12-15 12:21 METAR KFME 151721Z AUTO 04007KT 010V070 2 1/2SM OVC006 10/09 A3006 RMK AO1 =
2018-12-15 12:00 METAR KFME 151700Z AUTO 04006KT 4SM OVC006 10/10 A3006 RMK AO1 =
2018-12-15 11:42 METAR KFME 151642Z AUTO 04006KT 5SM OVC006 10/10 A3006 RMK AO1 =

Support USWX by starting your Amazon purchase here.